sensor_id;sensor_type;location;lat;lon;timestamp;P1;durP1;ratioP1;P2;durP2;ratioP2
16075;SDS011;8142;48.242;11.644;2023-01-15T00:01:23;1.40;;;1.30;;
16075;SDS011;8142;48.242;11.644;2023-01-15T00:03:52;2.10;;;1.07;;
16075;SDS011;8142;48.242;11.644;2023-01-15T00:06:20;4.00;;;1.30;;
16075;SDS011;8142;48.242;11.644;2023-01-15T00:08:47;1.90;;;1.20;;
16075;SDS011;8142;48.242;11.644;2023-01-15T00:11:13;1.67;;;1.40;;
16075;SDS011;8142;48.242;11.644;2023-01-15T00:13:40;2.03;;;1.20;;
16075;SDS011;8142;48.242;11.644;2023-01-15T00:16:10;1.40;;;1.17;;
16075;SDS011;8142;48.242;11.644;2023-01-15T00:18:51;1.40;;;1.23;;
16075;SDS011;8142;48.242;11.644;2023-01-15T00:21:18;1.13;;;1.00;;
16075;SDS011;8142;48.242;11.644;2023-01-15T00:23:45;1.67;;;1.27;;
16075;SDS011;8142;48.242;11.644;2023-01-15T00:26:31;1.23;;;1.13;;
16075;SDS011;8142;48.242;11.644;2023-01-15T00:29:17;1.20;;;1.10;;
16075;SDS011;8142;48.242;11.644;2023-01-15T00:31:43;1.40;;;1.30;;
16075;SDS011;8142;48.242;11.644;2023-01-15T00:34:16;1.50;;;1.40;;
16075;SDS011;8142;48.242;11.644;2023-01-15T00:36:42;1.30;;;1.20;;
16075;SDS011;8142;48.242;11.644;2023-01-15T00:39:08;1.30;;;1.20;;
16075;SDS011;8142;48.242;11.644;2023-01-15T00:41:34;2.23;;;1.30;;
16075;SDS011;8142;48.242;11.644;2023-01-15T00:44:00;1.97;;;1.10;;
16075;SDS011;8142;48.242;11.644;2023-01-15T00:46:26;1.17;;;1.07;;
16075;SDS011;8142;48.242;11.644;2023-01-15T00:48:52;1.20;;;1.10;;
16075;SDS011;8142;48.242;11.644;2023-01-15T00:51:18;1.20;;;1.10;;
16075;SDS011;8142;48.242;11.644;2023-01-15T00:53:44;2.43;;;1.20;;
16075;SDS011;8142;48.242;11.644;2023-01-15T00:56:10;2.17;;;1.00;;
16075;SDS011;8142;48.242;11.644;2023-01-15T00:58:36;3.17;;;1.30;;
16075;SDS011;8142;48.242;11.644;2023-01-15T01:01:05;2.33;;;1.40;;
16075;SDS011;8142;48.242;11.644;2023-01-15T01:03:31;1.60;;;1.37;;
16075;SDS011;8142;48.242;11.644;2023-01-15T01:06:00;1.30;;;1.20;;
16075;SDS011;8142;48.242;11.644;2023-01-15T01:08:28;1.37;;;1.00;;
16075;SDS011;8142;48.242;11.644;2023-01-15T01:11:04;1.70;;;1.20;;
16075;SDS011;8142;48.242;11.644;2023-01-15T01:13:33;1.87;;;1.13;;
16075;SDS011;8142;48.242;11.644;2023-01-15T01:16:00;1.30;;;1.00;;
16075;SDS011;8142;48.242;11.644;2023-01-15T01:18:26;2.07;;;1.10;;
16075;SDS011;8142;48.242;11.644;2023-01-15T01:20:52;1.30;;;1.20;;
16075;SDS011;8142;48.242;11.644;2023-01-15T01:23:18;1.37;;;1.10;;
16075;SDS011;8142;48.242;11.644;2023-01-15T01:25:44;1.27;;;1.10;;
16075;SDS011;8142;48.242;11.644;2023-01-15T01:28:10;2.80;;;1.30;;
16075;SDS011;8142;48.242;11.644;2023-01-15T01:30:37;1.40;;;0.93;;
16075;SDS011;8142;48.242;11.644;2023-01-15T01:33:03;1.63;;;1.10;;
16075;SDS011;8142;48.242;11.644;2023-01-15T01:35:30;1.93;;;1.10;;
16075;SDS011;8142;48.242;11.644;2023-01-15T01:37:56;1.30;;;1.13;;
16075;SDS011;8142;48.242;11.644;2023-01-15T01:40:22;1.53;;;1.30;;
16075;SDS011;8142;48.242;11.644;2023-01-15T01:42:47;1.23;;;1.00;;
16075;SDS011;8142;48.242;11.644;2023-01-15T01:45:17;1.30;;;1.00;;
16075;SDS011;8142;48.242;11.644;2023-01-15T01:47:50;1.40;;;1.17;;
16075;SDS011;8142;48.242;11.644;2023-01-15T01:50:19;1.33;;;1.00;;
16075;SDS011;8142;48.242;11.644;2023-01-15T01:52:47;1.50;;;1.13;;
16075;SDS011;8142;48.242;11.644;2023-01-15T01:55:17;3.43;;;1.10;;
16075;SDS011;8142;48.242;11.644;2023-01-15T01:57:46;1.43;;;1.23;;
16075;SDS011;8142;48.242;11.644;2023-01-15T02:00:14;1.57;;;1.37;;
16075;SDS011;8142;48.242;11.644;2023-01-15T02:02:44;1.20;;;1.10;;
16075;SDS011;8142;48.242;11.644;2023-01-15T02:05:18;1.20;;;1.10;;
16075;SDS011;8142;48.242;11.644;2023-01-15T02:07:50;1.23;;;0.90;;
16075;SDS011;8142;48.242;11.644;2023-01-15T02:10:16;1.57;;;0.93;;
16075;SDS011;8142;48.242;11.644;2023-01-15T02:12:48;1.80;;;1.10;;
16075;SDS011;8142;48.242;11.644;2023-01-15T02:15:31;1.70;;;1.17;;
16075;SDS011;8142;48.242;11.644;2023-01-15T02:20:43;1.40;;;0.90;;
16075;SDS011;8142;48.242;11.644;2023-01-15T02:23:30;2.90;;;1.00;;
16075;SDS011;8142;48.242;11.644;2023-01-15T02:29:05;1.37;;;1.10;;
16075;SDS011;8142;48.242;11.644;2023-01-15T02:31:39;1.67;;;1.20;;
16075;SDS011;8142;48.242;11.644;2023-01-15T02:34:21;1.03;;;0.93;;
16075;SDS011;8142;48.242;11.644;2023-01-15T02:36:53;0.87;;;0.87;;
16075;SDS011;8142;48.242;11.644;2023-01-15T02:39:26;1.50;;;1.10;;
16075;SDS011;8142;48.242;11.644;2023-01-15T02:41:54;1.33;;;1.00;;
16075;SDS011;8142;48.242;11.644;2023-01-15T02:44:24;1.00;;;0.90;;
16075;SDS011;8142;48.242;11.644;2023-01-15T02:46:56;1.87;;;1.20;;
16075;SDS011;8142;48.242;11.644;2023-01-15T02:49:24;1.23;;;1.07;;
16075;SDS011;8142;48.242;11.644;2023-01-15T02:51:57;1.13;;;1.03;;
16075;SDS011;8142;48.242;11.644;2023-01-15T02:54:28;0.87;;;0.87;;
16075;SDS011;8142;48.242;11.644;2023-01-15T02:56:58;1.00;;;0.90;;
16075;SDS011;8142;48.242;11.644;2023-01-15T02:59:28;0.90;;;0.90;;
16075;SDS011;8142;48.242;11.644;2023-01-15T03:02:00;0.90;;;0.90;;
16075;SDS011;8142;48.242;11.644;2023-01-15T03:04:33;1.00;;;1.00;;
16075;SDS011;8142;48.242;11.644;2023-01-15T03:07:24;1.00;;;1.00;;
16075;SDS011;8142;48.242;11.644;2023-01-15T03:10:14;0.90;;;0.90;;
16075;SDS011;8142;48.242;11.644;2023-01-15T03:12:48;1.47;;;1.00;;
16075;SDS011;8142;48.242;11.644;2023-01-15T03:15:44;1.27;;;0.90;;
16075;SDS011;8142;48.242;11.644;2023-01-15T03:18:43;1.13;;;1.00;;
16075;SDS011;8142;48.242;11.644;2023-01-15T03:21:26;1.93;;;1.20;;
16075;SDS011;8142;48.242;11.644;2023-01-15T03:24:00;1.00;;;0.80;;
16075;SDS011;8142;48.242;11.644;2023-01-15T03:26:28;1.47;;;0.90;;
16075;SDS011;8142;48.242;11.644;2023-01-15T03:28:54;1.10;;;0.90;;
16075;SDS011;8142;48.242;11.644;2023-01-15T03:31:21;0.90;;;0.90;;
16075;SDS011;8142;48.242;11.644;2023-01-15T03:33:47;1.00;;;0.70;;
16075;SDS011;8142;48.242;11.644;2023-01-15T03:36:13;0.73;;;0.73;;
16075;SDS011;8142;48.242;11.644;2023-01-15T03:38:39;0.90;;;0.90;;
16075;SDS011;8142;48.242;11.644;2023-01-15T03:41:18;0.70;;;0.70;;
16075;SDS011;8142;48.242;11.644;2023-01-15T03:50:33;0.73;;;0.73;;
16075;SDS011;8142;48.242;11.644;2023-01-15T03:52:54;1.07;;;0.80;;
16075;SDS011;8142;48.242;11.644;2023-01-15T03:58:29;1.17;;;1.10;;
16075;SDS011;8142;48.242;11.644;2023-01-15T04:01:14;1.80;;;0.70;;
16075;SDS011;8142;48.242;11.644;2023-01-15T04:03:43;0.90;;;0.90;;
16075;SDS011;8142;48.242;11.644;2023-01-15T04:06:12;1.53;;;0.90;;
16075;SDS011;8142;48.242;11.644;2023-01-15T04:08:39;1.53;;;0.80;;
16075;SDS011;8142;48.242;11.644;2023-01-15T04:11:07;2.00;;;0.80;;
16075;SDS011;8142;48.242;11.644;2023-01-15T04:13:36;1.40;;;0.90;;
16075;SDS011;8142;48.242;11.644;2023-01-15T04:16:02;2.07;;;0.90;;
16075;SDS011;8142;48.242;11.644;2023-01-15T04:18:29;0.90;;;0.90;;
16075;SDS011;8142;48.242;11.644;2023-01-15T04:20:55;0.80;;;0.80;;
16075;SDS011;8142;48.242;11.644;2023-01-15T04:23:22;1.13;;;0.83;;
16075;SDS011;8142;48.242;11.644;2023-01-15T04:25:48;1.47;;;0.93;;
16075;SDS011;8142;48.242;11.644;2023-01-15T04:28:14;0.63;;;0.63;;
16075;SDS011;8142;48.242;11.644;2023-01-15T04:30:40;1.37;;;0.80;;
16075;SDS011;8142;48.242;11.644;2023-01-15T04:33:07;2.00;;;0.93;;
16075;SDS011;8142;48.242;11.644;2023-01-15T04:35:33;0.93;;;0.90;;
16075;SDS011;8142;48.242;11.644;2023-01-15T04:38:00;1.00;;;0.90;;
16075;SDS011;8142;48.242;11.644;2023-01-15T04:40:26;1.43;;;0.80;;
16075;SDS011;8142;48.242;11.644;2023-01-15T04:43:12;1.17;;;1.03;;
16075;SDS011;8142;48.242;11.644;2023-01-15T04:45:57;1.17;;;1.00;;
16075;SDS011;8142;48.242;11.644;2023-01-15T04:48:26;0.97;;;0.90;;
16075;SDS011;8142;48.242;11.644;2023-01-15T04:50:51;1.20;;;0.83;;
16075;SDS011;8142;48.242;11.644;2023-01-15T04:53:20;1.50;;;1.10;;
16075;SDS011;8142;48.242;11.644;2023-01-15T04:55:46;1.00;;;0.87;;
16075;SDS011;8142;48.242;11.644;2023-01-15T04:58:12;0.70;;;0.70;;
16075;SDS011;8142;48.242;11.644;2023-01-15T05:00:48;1.47;;;0.97;;
16075;SDS011;8142;48.242;11.644;2023-01-15T05:03:28;0.80;;;0.80;;
16075;SDS011;8142;48.242;11.644;2023-01-15T05:05:54;1.00;;;0.60;;
16075;SDS011;8142;48.242;11.644;2023-01-15T05:08:25;0.70;;;0.70;;
16075;SDS011;8142;48.242;11.644;2023-01-15T05:10:51;0.80;;;0.80;;
16075;SDS011;8142;48.242;11.644;2023-01-15T05:13:17;1.23;;;0.93;;
16075;SDS011;8142;48.242;11.644;2023-01-15T05:15:43;1.23;;;0.97;;
16075;SDS011;8142;48.242;11.644;2023-01-15T05:18:13;1.20;;;0.90;;
16075;SDS011;8142;48.242;11.644;2023-01-15T05:20:40;0.97;;;0.90;;
16075;SDS011;8142;48.242;11.644;2023-01-15T05:23:06;0.80;;;0.80;;
16075;SDS011;8142;48.242;11.644;2023-01-15T05:25:35;1.00;;;0.80;;
16075;SDS011;8142;48.242;11.644;2023-01-15T05:28:01;1.80;;;1.00;;
16075;SDS011;8142;48.242;11.644;2023-01-15T05:30:27;0.80;;;0.80;;
16075;SDS011;8142;48.242;11.644;2023-01-15T05:32:53;0.87;;;0.80;;
16075;SDS011;8142;48.242;11.644;2023-01-15T05:35:19;0.90;;;0.70;;
16075;SDS011;8142;48.242;11.644;2023-01-15T05:37:45;1.10;;;1.00;;
16075;SDS011;8142;48.242;11.644;2023-01-15T05:40:14;0.77;;;0.77;;
16075;SDS011;8142;48.242;11.644;2023-01-15T05:42:40;1.10;;;1.00;;
16075;SDS011;8142;48.242;11.644;2023-01-15T05:45:06;1.90;;;1.00;;
16075;SDS011;8142;48.242;11.644;2023-01-15T05:47:33;1.63;;;1.20;;
16075;SDS011;8142;48.242;11.644;2023-01-15T05:50:00;1.07;;;0.80;;
16075;SDS011;8142;48.242;11.644;2023-01-15T05:52:26;1.33;;;1.00;;
16075;SDS011;8142;48.242;11.644;2023-01-15T05:54:51;0.83;;;0.83;;
16075;SDS011;8142;48.242;11.644;2023-01-15T05:57:17;0.97;;;0.87;;
16075;SDS011;8142;48.242;11.644;2023-01-15T05:59:43;2.40;;;0.83;;
16075;SDS011;8142;48.242;11.644;2023-01-15T06:02:10;0.87;;;0.77;;
16075;SDS011;8142;48.242;11.644;2023-01-15T06:04:35;0.63;;;0.60;;
16075;SDS011;8142;48.242;11.644;2023-01-15T06:07:01;1.37;;;0.50;;
16075;SDS011;8142;48.242;11.644;2023-01-15T06:09:27;0.57;;;0.50;;
16075;SDS011;8142;48.242;11.644;2023-01-15T06:11:53;0.60;;;0.60;;
16075;SDS011;8142;48.242;11.644;2023-01-15T06:14:20;0.33;;;0.33;;
16075;SDS011;8142;48.242;11.644;2023-01-15T06:16:46;0.40;;;0.40;;
16075;SDS011;8142;48.242;11.644;2023-01-15T06:19:12;0.23;;;0.23;;
16075;SDS011;8142;48.242;11.644;2023-01-15T06:21:38;0.83;;;0.40;;
16075;SDS011;8142;48.242;11.644;2023-01-15T06:24:05;0.30;;;0.30;;
16075;SDS011;8142;48.242;11.644;2023-01-15T06:26:32;0.30;;;0.30;;
16075;SDS011;8142;48.242;11.644;2023-01-15T06:28:58;0.40;;;0.40;;
16075;SDS011;8142;48.242;11.644;2023-01-15T06:31:24;0.20;;;0.20;;
16075;SDS011;8142;48.242;11.644;2023-01-15T06:33:53;0.33;;;0.33;;
16075;SDS011;8142;48.242;11.644;2023-01-15T06:36:20;0.40;;;0.40;;
16075;SDS011;8142;48.242;11.644;2023-01-15T06:38:48;0.50;;;0.30;;
16075;SDS011;8142;48.242;11.644;2023-01-15T06:41:15;0.40;;;0.40;;
16075;SDS011;8142;48.242;11.644;2023-01-15T06:44:01;0.23;;;0.23;;
16075;SDS011;8142;48.242;11.644;2023-01-15T06:46:46;0.50;;;0.40;;
16075;SDS011;8142;48.242;11.644;2023-01-15T06:49:33;0.73;;;0.47;;
16075;SDS011;8142;48.242;11.644;2023-01-15T06:52:00;0.23;;;0.20;;
16075;SDS011;8142;48.242;11.644;2023-01-15T06:54:27;0.47;;;0.40;;
16075;SDS011;8142;48.242;11.644;2023-01-15T06:56:53;0.30;;;0.30;;
16075;SDS011;8142;48.242;11.644;2023-01-15T06:59:19;0.30;;;0.30;;
16075;SDS011;8142;48.242;11.644;2023-01-15T07:01:45;0.30;;;0.30;;
16075;SDS011;8142;48.242;11.644;2023-01-15T07:04:11;0.30;;;0.30;;
16075;SDS011;8142;48.242;11.644;2023-01-15T07:06:37;0.30;;;0.27;;
16075;SDS011;8142;48.242;11.644;2023-01-15T07:09:03;0.80;;;0.37;;
16075;SDS011;8142;48.242;11.644;2023-01-15T07:11:29;0.83;;;0.23;;
16075;SDS011;8142;48.242;11.644;2023-01-15T07:13:55;0.63;;;0.30;;
16075;SDS011;8142;48.242;11.644;2023-01-15T07:16:34;0.87;;;0.30;;
16075;SDS011;8142;48.242;11.644;2023-01-15T07:19:01;0.30;;;0.30;;
16075;SDS011;8142;48.242;11.644;2023-01-15T07:21:27;0.20;;;0.20;;
16075;SDS011;8142;48.242;11.644;2023-01-15T07:23:54;0.93;;;0.20;;
16075;SDS011;8142;48.242;11.644;2023-01-15T07:26:23;0.50;;;0.30;;
16075;SDS011;8142;48.242;11.644;2023-01-15T07:28:49;0.30;;;0.30;;
16075;SDS011;8142;48.242;11.644;2023-01-15T07:31:15;0.40;;;0.30;;
16075;SDS011;8142;48.242;11.644;2023-01-15T07:33:41;0.20;;;0.20;;
16075;SDS011;8142;48.242;11.644;2023-01-15T07:36:08;0.20;;;0.20;;
16075;SDS011;8142;48.242;11.644;2023-01-15T07:38:34;0.20;;;0.20;;
16075;SDS011;8142;48.242;11.644;2023-01-15T07:40:59;1.07;;;0.20;;
16075;SDS011;8142;48.242;11.644;2023-01-15T07:43:44;0.53;;;0.30;;
16075;SDS011;8142;48.242;11.644;2023-01-15T07:46:29;0.20;;;0.20;;
16075;SDS011;8142;48.242;11.644;2023-01-15T07:49:14;0.20;;;0.20;;
16075;SDS011;8142;48.242;11.644;2023-01-15T07:51:59;1.07;;;0.30;;
16075;SDS011;8142;48.242;11.644;2023-01-15T07:54:25;0.30;;;0.20;;
16075;SDS011;8142;48.242;11.644;2023-01-15T07:56:54;0.50;;;0.20;;
16075;SDS011;8142;48.242;11.644;2023-01-15T07:59:20;0.57;;;0.20;;
16075;SDS011;8142;48.242;11.644;2023-01-15T08:01:46;1.93;;;0.33;;
16075;SDS011;8142;48.242;11.644;2023-01-15T08:04:13;0.20;;;0.20;;
16075;SDS011;8142;48.242;11.644;2023-01-15T08:06:39;0.20;;;0.20;;
16075;SDS011;8142;48.242;11.644;2023-01-15T08:09:05;0.20;;;0.20;;
16075;SDS011;8142;48.242;11.644;2023-01-15T08:11:31;0.50;;;0.20;;
16075;SDS011;8142;48.242;11.644;2023-01-15T08:14:17;0.20;;;0.20;;
16075;SDS011;8142;48.242;11.644;2023-01-15T08:17:02;0.20;;;0.20;;
16075;SDS011;8142;48.242;11.644;2023-01-15T08:19:28;0.20;;;0.20;;
16075;SDS011;8142;48.242;11.644;2023-01-15T08:21:55;1.03;;;0.27;;
16075;SDS011;8142;48.242;11.644;2023-01-15T08:24:21;0.37;;;0.37;;
16075;SDS011;8142;48.242;11.644;2023-01-15T08:26:48;0.20;;;0.20;;
16075;SDS011;8142;48.242;11.644;2023-01-15T08:29:14;0.20;;;0.20;;
16075;SDS011;8142;48.242;11.644;2023-01-15T08:31:40;0.70;;;0.70;;
16075;SDS011;8142;48.242;11.644;2023-01-15T08:34:06;0.33;;;0.33;;
16075;SDS011;8142;48.242;11.644;2023-01-15T08:36:32;0.77;;;0.60;;
16075;SDS011;8142;48.242;11.644;2023-01-15T08:38:58;2.03;;;1.20;;
16075;SDS011;8142;48.242;11.644;2023-01-15T08:41:24;2.47;;;1.50;;
16075;SDS011;8142;48.242;11.644;2023-01-15T08:43:50;0.40;;;0.40;;
16075;SDS011;8142;48.242;11.644;2023-01-15T08:46:16;0.30;;;0.30;;
16075;SDS011;8142;48.242;11.644;2023-01-15T08:48:42;0.40;;;0.27;;
16075;SDS011;8142;48.242;11.644;2023-01-15T08:51:09;0.30;;;0.30;;
16075;SDS011;8142;48.242;11.644;2023-01-15T08:53:37;0.20;;;0.20;;
16075;SDS011;8142;48.242;11.644;2023-01-15T08:56:03;0.30;;;0.30;;
16075;SDS011;8142;48.242;11.644;2023-01-15T08:58:30;0.27;;;0.27;;
16075;SDS011;8142;48.242;11.644;2023-01-15T09:01:06;0.40;;;0.40;;
16075;SDS011;8142;48.242;11.644;2023-01-15T09:03:33;0.30;;;0.30;;
16075;SDS011;8142;48.242;11.644;2023-01-15T09:06:00;0.37;;;0.37;;
16075;SDS011;8142;48.242;11.644;2023-01-15T09:08:27;0.50;;;0.40;;
16075;SDS011;8142;48.242;11.644;2023-01-15T09:10:57;0.90;;;0.40;;
16075;SDS011;8142;48.242;11.644;2023-01-15T09:13:23;0.97;;;0.40;;
16075;SDS011;8142;48.242;11.644;2023-01-15T09:15:50;0.40;;;0.30;;
16075;SDS011;8142;48.242;11.644;2023-01-15T09:18:16;0.30;;;0.30;;
16075;SDS011;8142;48.242;11.644;2023-01-15T09:20:44;0.30;;;0.30;;
16075;SDS011;8142;48.242;11.644;2023-01-15T09:23:10;0.40;;;0.40;;
16075;SDS011;8142;48.242;11.644;2023-01-15T09:25:36;0.73;;;0.43;;
16075;SDS011;8142;48.242;11.644;2023-01-15T09:28:02;0.30;;;0.30;;
16075;SDS011;8142;48.242;11.644;2023-01-15T09:30:28;0.40;;;0.40;;
16075;SDS011;8142;48.242;11.644;2023-01-15T09:32:55;0.60;;;0.57;;
16075;SDS011;8142;48.242;11.644;2023-01-15T09:35:21;0.73;;;0.50;;
16075;SDS011;8142;48.242;11.644;2023-01-15T09:37:50;0.40;;;0.40;;
16075;SDS011;8142;48.242;11.644;2023-01-15T09:40:24;0.47;;;0.47;;
16075;SDS011;8142;48.242;11.644;2023-01-15T09:42:57;0.30;;;0.30;;
16075;SDS011;8142;48.242;11.644;2023-01-15T09:45:34;0.40;;;0.40;;
16075;SDS011;8142;48.242;11.644;2023-01-15T09:50:42;1.37;;;0.53;;
16075;SDS011;8142;48.242;11.644;2023-01-15T09:53:35;0.40;;;0.40;;
16075;SDS011;8142;48.242;11.644;2023-01-15T09:56:18;0.40;;;0.40;;
16075;SDS011;8142;48.242;11.644;2023-01-15T09:58:47;0.30;;;0.30;;
16075;SDS011;8142;48.242;11.644;2023-01-15T10:01:15;0.83;;;0.50;;
16075;SDS011;8142;48.242;11.644;2023-01-15T10:03:48;2.00;;;0.50;;
16075;SDS011;8142;48.242;11.644;2023-01-15T10:06:20;0.50;;;0.50;;
16075;SDS011;8142;48.242;11.644;2023-01-15T10:08:49;1.00;;;0.30;;
16075;SDS011;8142;48.242;11.644;2023-01-15T10:11:28;0.67;;;0.40;;
16075;SDS011;8142;48.242;11.644;2023-01-15T10:14:42;0.37;;;0.37;;
16075;SDS011;8142;48.242;11.644;2023-01-15T10:17:27;0.30;;;0.30;;
16075;SDS011;8142;48.242;11.644;2023-01-15T10:19:59;0.50;;;0.30;;
16075;SDS011;8142;48.242;11.644;2023-01-15T10:25:16;0.20;;;0.20;;
16075;SDS011;8142;48.242;11.644;2023-01-15T10:27:50;0.30;;;0.30;;
16075;SDS011;8142;48.242;11.644;2023-01-15T10:30:26;0.40;;;0.40;;
16075;SDS011;8142;48.242;11.644;2023-01-15T10:33:42;0.47;;;0.47;;
16075;SDS011;8142;48.242;11.644;2023-01-15T10:36:03;0.23;;;0.23;;
16075;SDS011;8142;48.242;11.644;2023-01-15T10:41:24;0.20;;;0.20;;
16075;SDS011;8142;48.242;11.644;2023-01-15T10:46:30;0.57;;;0.40;;
16075;SDS011;8142;48.242;11.644;2023-01-15T10:49:12;0.70;;;0.33;;
16075;SDS011;8142;48.242;11.644;2023-01-15T10:51:42;0.27;;;0.27;;
16075;SDS011;8142;48.242;11.644;2023-01-15T10:54:23;0.27;;;0.27;;
16075;SDS011;8142;48.242;11.644;2023-01-15T10:57:11;0.30;;;0.30;;
16075;SDS011;8142;48.242;11.644;2023-01-15T10:59:58;0.30;;;0.30;;
16075;SDS011;8142;48.242;11.644;2023-01-15T11:02:33;0.20;;;0.20;;
16075;SDS011;8142;48.242;11.644;2023-01-15T11:05:04;0.30;;;0.30;;
16075;SDS011;8142;48.242;11.644;2023-01-15T11:07:38;0.97;;;0.40;;
16075;SDS011;8142;48.242;11.644;2023-01-15T11:10:07;0.27;;;0.27;;
16075;SDS011;8142;48.242;11.644;2023-01-15T11:12:39;0.30;;;0.30;;
16075;SDS011;8142;48.242;11.644;2023-01-15T11:15:31;0.50;;;0.50;;
16075;SDS011;8142;48.242;11.644;2023-01-15T11:18:22;1.10;;;1.00;;
16075;SDS011;8142;48.242;11.644;2023-01-15T11:21:14;0.37;;;0.33;;
16075;SDS011;8142;48.242;11.644;2023-01-15T11:23:42;1.37;;;0.20;;
16075;SDS011;8142;48.242;11.644;2023-01-15T11:26:09;0.23;;;0.23;;
16075;SDS011;8142;48.242;11.644;2023-01-15T11:28:44;0.33;;;0.33;;
16075;SDS011;8142;48.242;11.644;2023-01-15T11:31:11;0.30;;;0.30;;
16075;SDS011;8142;48.242;11.644;2023-01-15T11:33:38;0.20;;;0.20;;
16075;SDS011;8142;48.242;11.644;2023-01-15T11:36:06;0.20;;;0.20;;
16075;SDS011;8142;48.242;11.644;2023-01-15T11:38:45;0.20;;;0.20;;
16075;SDS011;8142;48.242;11.644;2023-01-15T11:41:19;0.30;;;0.20;;
16075;SDS011;8142;48.242;11.644;2023-01-15T11:43:54;0.27;;;0.27;;
16075;SDS011;8142;48.242;11.644;2023-01-15T11:46:40;0.63;;;0.30;;
16075;SDS011;8142;48.242;11.644;2023-01-15T11:49:25;0.20;;;0.20;;
16075;SDS011;8142;48.242;11.644;2023-01-15T11:52:15;0.30;;;0.30;;
16075;SDS011;8142;48.242;11.644;2023-01-15T11:54:44;0.90;;;0.87;;
16075;SDS011;8142;48.242;11.644;2023-01-15T11:57:21;0.50;;;0.50;;
16075;SDS011;8142;48.242;11.644;2023-01-15T12:00:07;0.40;;;0.40;;
16075;SDS011;8142;48.242;11.644;2023-01-15T12:02:48;0.40;;;0.40;;
16075;SDS011;8142;48.242;11.644;2023-01-15T12:05:20;0.40;;;0.40;;
16075;SDS011;8142;48.242;11.644;2023-01-15T12:07:49;0.40;;;0.40;;
16075;SDS011;8142;48.242;11.644;2023-01-15T12:15:56;0.63;;;0.50;;
16075;SDS011;8142;48.242;11.644;2023-01-15T12:24:33;0.70;;;0.70;;
16075;SDS011;8142;48.242;11.644;2023-01-15T12:30:02;0.50;;;0.50;;
16075;SDS011;8142;48.242;11.644;2023-01-15T12:32:45;0.50;;;0.50;;
16075;SDS011;8142;48.242;11.644;2023-01-15T12:35:29;0.90;;;0.60;;
16075;SDS011;8142;48.242;11.644;2023-01-15T12:37:57;0.50;;;0.50;;
16075;SDS011;8142;48.242;11.644;2023-01-15T12:43:17;1.10;;;0.50;;
16075;SDS011;8142;48.242;11.644;2023-01-15T12:46:09;0.40;;;0.40;;
16075;SDS011;8142;48.242;11.644;2023-01-15T12:49:13;0.33;;;0.33;;
16075;SDS011;8142;48.242;11.644;2023-01-15T12:55:00;0.50;;;0.50;;
16075;SDS011;8142;48.242;11.644;2023-01-15T12:57:50;0.40;;;0.40;;
16075;SDS011;8142;48.242;11.644;2023-01-15T13:00:24;0.50;;;0.50;;
16075;SDS011;8142;48.242;11.644;2023-01-15T13:08:17;0.50;;;0.50;;
16075;SDS011;8142;48.242;11.644;2023-01-15T13:10:50;0.53;;;0.53;;
16075;SDS011;8142;48.242;11.644;2023-01-15T13:15:56;0.43;;;0.43;;
16075;SDS011;8142;48.242;11.644;2023-01-15T13:18:29;0.77;;;0.60;;
16075;SDS011;8142;48.242;11.644;2023-01-15T13:20:56;0.57;;;0.40;;
16075;SDS011;8142;48.242;11.644;2023-01-15T13:23:34;0.87;;;0.60;;
16075;SDS011;8142;48.242;11.644;2023-01-15T13:26:11;0.97;;;0.70;;
16075;SDS011;8142;48.242;11.644;2023-01-15T13:31:39;0.97;;;0.80;;
16075;SDS011;8142;48.242;11.644;2023-01-15T13:36:57;0.50;;;0.50;;
16075;SDS011;8142;48.242;11.644;2023-01-15T13:39:33;0.60;;;0.60;;
16075;SDS011;8142;48.242;11.644;2023-01-15T13:42:10;0.40;;;0.40;;
16075;SDS011;8142;48.242;11.644;2023-01-15T13:47:44;0.40;;;0.40;;
16075;SDS011;8142;48.242;11.644;2023-01-15T13:50:17;0.33;;;0.23;;
16075;SDS011;8142;48.242;11.644;2023-01-15T13:52:57;0.40;;;0.40;;
16075;SDS011;8142;48.242;11.644;2023-01-15T13:55:36;0.60;;;0.50;;
16075;SDS011;8142;48.242;11.644;2023-01-15T13:58:15;0.30;;;0.30;;
16075;SDS011;8142;48.242;11.644;2023-01-15T14:00:44;0.50;;;0.50;;
16075;SDS011;8142;48.242;11.644;2023-01-15T14:03:24;0.77;;;0.50;;
16075;SDS011;8142;48.242;11.644;2023-01-15T14:06:02;0.50;;;0.43;;
16075;SDS011;8142;48.242;11.644;2023-01-15T14:08:40;0.50;;;0.50;;
16075;SDS011;8142;48.242;11.644;2023-01-15T14:14:05;1.37;;;1.10;;
16075;SDS011;8142;48.242;11.644;2023-01-15T14:22:00;1.20;;;0.60;;
16075;SDS011;8142;48.242;11.644;2023-01-15T14:33:33;0.40;;;0.40;;
16075;SDS011;8142;48.242;11.644;2023-01-15T14:36:17;0.53;;;0.50;;
16075;SDS011;8142;48.242;11.644;2023-01-15T14:38:51;0.40;;;0.40;;
16075;SDS011;8142;48.242;11.644;2023-01-15T14:41:25;0.40;;;0.40;;
16075;SDS011;8142;48.242;11.644;2023-01-15T14:44:25;0.63;;;0.47;;
16075;SDS011;8142;48.242;11.644;2023-01-15T14:47:03;0.60;;;0.60;;
16075;SDS011;8142;48.242;11.644;2023-01-15T14:49:44;0.40;;;0.40;;
16075;SDS011;8142;48.242;11.644;2023-01-15T14:52:15;0.60;;;0.60;;
16075;SDS011;8142;48.242;11.644;2023-01-15T14:54:48;0.50;;;0.50;;
16075;SDS011;8142;48.242;11.644;2023-01-15T14:57:14;0.77;;;0.60;;
16075;SDS011;8142;48.242;11.644;2023-01-15T14:59:43;0.50;;;0.50;;
16075;SDS011;8142;48.242;11.644;2023-01-15T15:02:20;0.60;;;0.60;;
16075;SDS011;8142;48.242;11.644;2023-01-15T15:04:53;0.50;;;0.50;;
16075;SDS011;8142;48.242;11.644;2023-01-15T15:07:35;0.50;;;0.50;;
16075;SDS011;8142;48.242;11.644;2023-01-15T15:10:26;0.50;;;0.50;;
16075;SDS011;8142;48.242;11.644;2023-01-15T15:18:31;0.57;;;0.57;;
16075;SDS011;8142;48.242;11.644;2023-01-15T15:21:08;0.40;;;0.40;;
16075;SDS011;8142;48.242;11.644;2023-01-15T15:23:48;0.60;;;0.60;;
16075;SDS011;8142;48.242;11.644;2023-01-15T15:26:42;0.30;;;0.30;;
16075;SDS011;8142;48.242;11.644;2023-01-15T15:31:35;0.73;;;0.40;;
16075;SDS011;8142;48.242;11.644;2023-01-15T15:34:25;0.40;;;0.40;;
16075;SDS011;8142;48.242;11.644;2023-01-15T15:36:55;0.47;;;0.47;;
16075;SDS011;8142;48.242;11.644;2023-01-15T15:39:27;0.40;;;0.40;;
16075;SDS011;8142;48.242;11.644;2023-01-15T15:42:19;0.70;;;0.70;;
16075;SDS011;8142;48.242;11.644;2023-01-15T15:45:23;0.60;;;0.60;;
16075;SDS011;8142;48.242;11.644;2023-01-15T15:48:10;2.33;;;0.60;;
16075;SDS011;8142;48.242;11.644;2023-01-15T15:50:57;1.33;;;0.43;;
16075;SDS011;8142;48.242;11.644;2023-01-15T15:53:24;0.60;;;0.60;;
16075;SDS011;8142;48.242;11.644;2023-01-15T15:55:50;1.40;;;0.40;;
16075;SDS011;8142;48.242;11.644;2023-01-15T15:58:29;0.67;;;0.50;;
16075;SDS011;8142;48.242;11.644;2023-01-15T16:01:01;0.73;;;0.60;;
16075;SDS011;8142;48.242;11.644;2023-01-15T16:03:28;0.63;;;0.50;;
16075;SDS011;8142;48.242;11.644;2023-01-15T16:06:03;0.50;;;0.50;;
16075;SDS011;8142;48.242;11.644;2023-01-15T16:08:32;0.53;;;0.53;;
16075;SDS011;8142;48.242;11.644;2023-01-15T16:11:06;0.50;;;0.50;;
16075;SDS011;8142;48.242;11.644;2023-01-15T16:13:41;0.67;;;0.50;;
16075;SDS011;8142;48.242;11.644;2023-01-15T16:16:10;0.70;;;0.70;;
16075;SDS011;8142;48.242;11.644;2023-01-15T16:18:41;0.67;;;0.67;;
16075;SDS011;8142;48.242;11.644;2023-01-15T16:21:15;1.17;;;0.83;;
16075;SDS011;8142;48.242;11.644;2023-01-15T16:23:57;0.60;;;0.60;;
16075;SDS011;8142;48.242;11.644;2023-01-15T16:26:29;1.13;;;0.70;;
16075;SDS011;8142;48.242;11.644;2023-01-15T16:28:56;0.97;;;0.60;;
16075;SDS011;8142;48.242;11.644;2023-01-15T16:31:25;0.80;;;0.80;;
16075;SDS011;8142;48.242;11.644;2023-01-15T16:33:57;0.83;;;0.83;;
16075;SDS011;8142;48.242;11.644;2023-01-15T16:36:23;1.13;;;0.83;;
16075;SDS011;8142;48.242;11.644;2023-01-15T16:38:52;1.00;;;1.00;;
16075;SDS011;8142;48.242;11.644;2023-01-15T16:41:26;0.97;;;0.87;;
16075;SDS011;8142;48.242;11.644;2023-01-15T16:44:01;1.10;;;0.87;;
16075;SDS011;8142;48.242;11.644;2023-01-15T16:46:30;0.77;;;0.77;;